createdAt,value
2023-02-04T00:00:37.513Z,10.40
2023-02-04T00:03:06.421Z,10.00
2023-02-04T00:05:35.429Z,9.70
2023-02-04T00:08:06.630Z,11.00
2023-02-04T00:10:36.517Z,9.80
2023-02-04T00:13:04.929Z,9.30
2023-02-04T00:15:36.512Z,9.50
2023-02-04T00:18:05.705Z,9.30
2023-02-04T00:20:34.001Z,9.20
2023-02-04T00:23:01.988Z,10.20
2023-02-04T00:25:30.214Z,7.80
2023-02-04T00:27:58.715Z,9.40
2023-02-04T00:30:26.962Z,8.70
2023-02-04T00:32:56.665Z,6.80
2023-02-04T00:35:24.766Z,8.40
2023-02-04T00:37:53.595Z,8.60
2023-02-04T00:40:21.672Z,7.60
2023-02-04T00:42:49.985Z,8.00
2023-02-04T00:45:18.362Z,8.60
2023-02-04T00:47:46.530Z,8.50
2023-02-04T00:50:15.330Z,8.70
2023-02-04T00:52:45.035Z,7.60
2023-02-04T00:55:13.715Z,8.30
2023-02-04T00:57:41.829Z,9.30
2023-02-04T01:00:11.289Z,8.70
2023-02-04T01:02:40.893Z,8.20
2023-02-04T01:05:09.226Z,8.40
2023-02-04T01:07:40.761Z,8.60
2023-02-04T01:10:10.344Z,9.80
2023-02-04T01:12:38.680Z,9.80
2023-02-04T01:17:36.276Z,9.00
2023-02-04T01:20:04.675Z,10.10
2023-02-04T01:22:33.262Z,9.30
2023-02-04T01:25:01.430Z,9.80
2023-02-04T01:27:44.602Z,9.30
2023-02-04T01:32:41.911Z,8.80
2023-02-04T01:37:40.136Z,8.30
2023-02-04T01:40:10.401Z,8.30
2023-02-04T01:42:38.746Z,8.60
2023-02-04T01:45:06.991Z,9.50
2023-02-04T01:50:04.039Z,8.20
2023-02-04T01:55:03.396Z,7.70
2023-02-04T01:57:31.962Z,9.00
2023-02-04T02:00:00.239Z,6.20
2023-02-04T02:02:42.582Z,8.10
2023-02-04T02:05:13.273Z,7.90
2023-02-04T02:07:42.909Z,8.10
2023-02-04T02:10:11.894Z,7.70
2023-02-04T02:15:09.140Z,7.30
2023-02-04T02:17:38.133Z,6.90
2023-02-04T02:22:44.838Z,7.00
2023-02-04T02:25:13.596Z,7.10
2023-02-04T02:27:44.458Z,6.40
2023-02-04T02:30:15.158Z,7.90
2023-02-04T02:32:45.065Z,6.80
2023-02-04T02:35:13.251Z,7.10
2023-02-04T02:37:41.835Z,6.30
2023-02-04T02:40:10.675Z,6.80
2023-02-04T02:42:43.457Z,6.40
2023-02-04T02:45:20.670Z,6.10
2023-02-04T02:47:48.993Z,7.20
2023-02-04T02:50:18.762Z,6.00
2023-02-04T02:52:47.589Z,6.00
2023-02-04T02:55:17.298Z,6.00
2023-02-04T02:57:46.782Z,6.10
2023-02-04T03:00:19.309Z,6.10
2023-02-04T03:02:53.876Z,6.70
2023-02-04T03:05:22.066Z,6.90
2023-02-04T03:07:50.447Z,6.90
2023-02-04T03:10:18.751Z,7.30
2023-02-04T03:12:46.996Z,7.30
2023-02-04T03:15:15.172Z,7.90
2023-02-04T03:17:43.343Z,8.40
2023-02-04T03:20:12.234Z,8.10
2023-02-04T03:22:40.664Z,7.40
2023-02-04T03:25:08.890Z,7.50
2023-02-04T03:27:38.431Z,7.20
2023-02-04T03:30:08.809Z,7.20
2023-02-04T03:32:37.189Z,7.20
2023-02-04T03:35:05.866Z,7.40
2023-02-04T03:37:34.998Z,7.40
2023-02-04T03:40:03.470Z,7.40
2023-02-04T03:42:32.676Z,8.10
2023-02-04T03:45:00.853Z,5.30
2023-02-04T03:47:29.114Z,7.80
2023-02-04T03:49:57.441Z,7.70
2023-02-04T03:52:25.504Z,8.00
2023-02-04T03:54:53.589Z,7.70
2023-02-04T03:57:21.818Z,7.10
2023-02-04T03:59:50.009Z,7.30
2023-02-04T04:02:18.056Z,8.30
2023-02-04T04:04:46.126Z,7.60
2023-02-04T04:07:14.332Z,8.00
2023-02-04T04:09:42.985Z,8.30
2023-02-04T04:12:11.165Z,9.20
2023-02-04T04:14:40.526Z,8.50
2023-02-04T04:17:08.759Z,10.00
2023-02-04T04:19:36.862Z,10.70
2023-02-04T04:22:05.096Z,10.60
2023-02-04T04:24:33.660Z,10.70
2023-02-04T04:27:01.950Z,10.70
2023-02-04T04:29:30.525Z,11.40
2023-02-04T04:31:58.714Z,10.80
2023-02-04T04:34:26.806Z,11.00
2023-02-04T04:36:55.044Z,10.60
2023-02-04T04:39:23.112Z,9.60
2023-02-04T04:41:51.249Z,8.70
2023-02-04T04:44:19.294Z,9.40
2023-02-04T04:46:47.594Z,8.70
2023-02-04T04:49:16.623Z,8.60
2023-02-04T04:51:45.031Z,7.80
2023-02-04T04:54:13.210Z,7.60
2023-02-04T04:56:41.488Z,8.10
2023-02-04T04:59:10.147Z,7.80
2023-02-04T05:01:38.261Z,7.40
2023-02-04T05:04:06.455Z,8.10
2023-02-04T05:06:35.138Z,7.70
2023-02-04T05:09:03.348Z,8.20
2023-02-04T05:11:32.671Z,7.10
2023-02-04T05:14:00.657Z,7.50
2023-02-04T05:16:29.204Z,7.40
2023-02-04T05:18:57.417Z,7.70
2023-02-04T05:21:25.385Z,7.70
2023-02-04T05:23:53.378Z,8.30
2023-02-04T05:26:29.763Z,8.80
2023-02-04T05:29:01.356Z,9.30
2023-02-04T05:31:29.636Z,9.30
2023-02-04T05:33:57.999Z,9.30
2023-02-04T05:36:26.111Z,10.50
2023-02-04T05:38:54.354Z,9.30
2023-02-04T05:41:22.618Z,10.90
2023-02-04T05:43:51.031Z,10.80
2023-02-04T05:46:19.138Z,12.50
2023-02-04T05:48:47.243Z,11.30
2023-02-04T05:51:15.350Z,11.90
2023-02-04T05:53:43.485Z,13.10
2023-02-04T05:56:11.555Z,13.90
2023-02-04T05:58:40.068Z,12.30
2023-02-04T06:01:08.192Z,13.30
2023-02-04T06:03:37.140Z,11.50
2023-02-04T06:06:05.437Z,10.80
2023-02-04T06:08:33.694Z,11.30
2023-02-04T06:11:01.827Z,10.00
2023-02-04T06:13:30.001Z,10.90
2023-02-04T06:15:58.071Z,9.30
2023-02-04T06:18:27.653Z,10.60
2023-02-04T06:20:55.732Z,10.70
2023-02-04T06:23:23.810Z,10.30
2023-02-04T06:28:20.796Z,10.40
2023-02-04T06:30:49.721Z,10.50
2023-02-04T06:33:17.818Z,10.30
2023-02-04T06:35:47.376Z,9.20
2023-02-04T06:38:15.457Z,9.50
2023-02-04T06:40:43.596Z,9.60
2023-02-04T06:43:11.933Z,10.00
2023-02-04T06:45:40.114Z,8.70
2023-02-04T06:50:38.642Z,8.50
2023-02-04T06:53:06.864Z,8.70
2023-02-04T06:55:36.414Z,9.60
2023-02-04T06:58:05.061Z,9.90
2023-02-04T07:00:35.252Z,10.40
2023-02-04T07:03:03.525Z,10.30
2023-02-04T07:05:34.802Z,9.90
2023-02-04T07:08:02.913Z,8.80
2023-02-04T07:10:32.890Z,9.40
2023-02-04T07:13:21.029Z,10.20
2023-02-04T07:15:49.817Z,9.90
2023-02-04T07:18:18.249Z,10.80
2023-02-04T07:20:48.750Z,11.10
2023-02-04T07:23:16.953Z,9.10
2023-02-04T07:25:45.136Z,10.20
2023-02-04T07:28:13.219Z,10.10
2023-02-04T07:30:41.503Z,11.00
2023-02-04T07:33:09.604Z,11.80
2023-02-04T07:35:40.696Z,10.80
2023-02-04T07:38:08.876Z,10.30
2023-02-04T07:40:36.954Z,10.80
2023-02-04T07:43:05.502Z,10.60
2023-02-04T07:45:34.710Z,10.80
2023-02-04T07:48:03.594Z,9.70
2023-02-04T07:50:32.528Z,8.40
2023-02-04T07:53:01.012Z,8.70
2023-02-04T07:55:29.334Z,8.70
2023-02-04T07:57:57.439Z,9.10
2023-02-04T08:00:25.676Z,9.30
2023-02-04T08:02:54.780Z,9.90
2023-02-04T08:05:23.170Z,9.50
2023-02-04T08:07:51.865Z,10.10
2023-02-04T08:10:21.573Z,9.80
2023-02-04T08:12:50.046Z,9.20
2023-02-04T08:15:18.298Z,8.70
2023-02-04T08:20:16.732Z,7.70
2023-02-04T08:22:46.212Z,8.30
2023-02-04T08:25:14.718Z,9.90
2023-02-04T08:27:44.218Z,11.70
2023-02-04T08:30:13.510Z,10.80
2023-02-04T08:32:43.999Z,9.20
2023-02-04T08:35:12.829Z,9.60
2023-02-04T08:37:41.105Z,8.50
2023-02-04T08:40:10.155Z,8.70
2023-02-04T08:42:39.585Z,8.80
2023-02-04T08:45:08.128Z,8.60
2023-02-04T08:50:04.932Z,7.90
2023-02-04T08:52:33.327Z,8.10
2023-02-04T08:55:01.406Z,7.50
2023-02-04T08:57:30.072Z,7.30
2023-02-04T08:59:58.270Z,7.40
2023-02-04T09:02:26.378Z,7.30
2023-02-04T09:04:54.722Z,7.00
2023-02-04T09:07:23.022Z,6.90
2023-02-04T09:09:51.290Z,5.90
2023-02-04T09:13:14.417Z,7.10
2023-02-04T09:15:42.526Z,6.80
2023-02-04T09:18:22.063Z,7.10
2023-02-04T09:20:50.857Z,7.30
2023-02-04T09:23:19.325Z,7.70
2023-02-04T09:25:47.697Z,8.00
2023-02-04T09:28:17.224Z,6.70
2023-02-04T09:30:46.440Z,7.20
2023-02-04T09:35:43.217Z,7.10
2023-02-04T09:38:11.316Z,7.10
2023-02-04T09:40:50.138Z,8.50
2023-02-04T09:43:21.531Z,7.00
2023-02-04T09:45:49.755Z,7.90
2023-02-04T09:48:17.879Z,7.70
2023-02-04T09:50:45.900Z,8.90
2023-02-04T09:53:16.126Z,8.80
2023-02-04T09:55:45.542Z,8.00
2023-02-04T09:58:23.299Z,8.60
2023-02-04T10:01:06.110Z,9.50
2023-02-04T10:03:35.486Z,8.30
2023-02-04T10:06:04.663Z,8.50
2023-02-04T10:08:33.318Z,9.40
2023-02-04T10:11:01.537Z,9.80
2023-02-04T10:13:34.394Z,8.50
2023-02-04T10:16:02.559Z,10.00
2023-02-04T10:18:32.830Z,10.50
2023-02-04T10:21:11.807Z,10.30
2023-02-04T10:23:42.143Z,11.30
2023-02-04T10:26:11.798Z,12.50
2023-02-04T10:28:40.453Z,11.50
2023-02-04T10:31:30.859Z,12.30
2023-02-04T10:34:04.261Z,10.40
2023-02-04T10:36:33.766Z,11.50
2023-02-04T10:39:07.306Z,11.00
2023-02-04T10:41:40.100Z,10.30
2023-02-04T10:44:10.927Z,11.50
2023-02-04T10:46:38.993Z,11.20
2023-02-04T10:49:22.065Z,11.50
2023-02-04T10:51:51.551Z,11.60
2023-02-04T10:54:30.572Z,10.30
2023-02-04T10:57:15.608Z,10.20
2023-02-04T10:59:44.552Z,9.60
2023-02-04T11:02:44.219Z,9.60
2023-02-04T11:05:20.189Z,9.90
2023-02-04T11:07:48.811Z,9.30
2023-02-04T11:10:21.558Z,9.30
2023-02-04T11:12:56.013Z,9.00
2023-02-04T11:15:39.393Z,8.70
2023-02-04T11:18:12.703Z,8.50
2023-02-04T11:20:41.339Z,8.70
2023-02-04T11:23:32.250Z,9.30
2023-02-04T11:26:19.413Z,10.20
2023-02-04T11:28:59.792Z,10.70
2023-02-04T11:31:40.778Z,11.90
2023-02-04T11:34:14.375Z,11.40
2023-02-04T11:37:01.458Z,12.10
2023-02-04T11:39:34.622Z,11.70
2023-02-04T11:42:03.568Z,11.40
2023-02-04T11:44:33.057Z,12.60
2023-02-04T11:47:01.785Z,12.00
2023-02-04T11:52:10.341Z,12.60
2023-02-04T11:54:39.426Z,11.80
2023-02-04T11:57:09.734Z,12.10
2023-02-04T11:59:42.171Z,11.20
2023-02-04T12:02:22.094Z,12.20
2023-02-04T12:04:57.930Z,11.00
2023-02-04T12:07:29.602Z,11.30
2023-02-04T12:09:57.729Z,10.90
2023-02-04T12:12:30.166Z,10.60
2023-02-04T12:15:04.694Z,9.80
2023-02-04T12:18:57.167Z,10.60
2023-02-04T12:21:24.139Z,10.50
2023-02-04T12:23:50.820Z,8.80
2023-02-04T12:26:17.389Z,8.30
2023-02-04T12:28:44.005Z,8.70
2023-02-04T12:31:10.904Z,8.80
2023-02-04T12:33:37.795Z,8.60
2023-02-04T12:36:05.231Z,9.10
2023-02-04T12:38:32.065Z,8.70
2023-02-04T12:40:58.831Z,9.10
2023-02-04T12:43:28.261Z,8.60
2023-02-04T12:45:55.259Z,9.20
2023-02-04T12:48:21.936Z,9.40
2023-02-04T12:50:48.795Z,9.50
2023-02-04T12:53:15.812Z,9.50
2023-02-04T12:55:43.137Z,9.60
2023-02-04T12:58:09.815Z,9.80
2023-02-04T13:00:36.912Z,10.10
2023-02-04T13:03:04.615Z,9.60
2023-02-04T13:05:31.746Z,10.20
2023-02-04T13:07:58.912Z,8.70
2023-02-04T13:10:25.662Z,8.50
2023-02-04T13:12:54.880Z,8.90
2023-02-04T13:15:21.589Z,7.50
2023-02-04T13:17:49.254Z,8.40
2023-02-04T13:20:17.100Z,8.10
2023-02-04T13:22:44.432Z,7.70
2023-02-04T13:25:11.196Z,8.40
2023-02-04T13:27:39.076Z,10.00
2023-02-04T13:30:06.839Z,10.60
2023-02-04T13:32:34.296Z,8.90
2023-02-04T13:35:01.755Z,8.80
2023-02-04T13:37:29.346Z,7.30
2023-02-04T13:39:56.054Z,7.20
2023-02-04T13:42:23.512Z,7.00
2023-02-04T13:44:50.520Z,6.60
2023-02-04T13:47:17.248Z,7.30
2023-02-04T13:49:44.146Z,6.40
2023-02-04T13:52:12.734Z,6.00
2023-02-04T13:57:06.722Z,6.70
2023-02-04T13:59:33.573Z,6.70
2023-02-04T14:02:01.229Z,6.80
2023-02-04T14:04:28.585Z,6.80
2023-02-04T14:06:56.039Z,6.40
2023-02-04T14:09:24.734Z,7.50
2023-02-04T14:11:51.463Z,7.90
2023-02-04T14:14:18.848Z,8.50
2023-02-04T14:16:45.814Z,7.70
2023-02-04T14:19:13.850Z,11.10
2023-02-04T14:21:41.598Z,7.60
2023-02-04T14:24:08.878Z,7.80
2023-02-04T14:26:36.813Z,7.60
2023-02-04T14:29:04.174Z,8.10
2023-02-04T14:31:31.138Z,7.70
2023-02-04T14:33:58.688Z,7.90
2023-02-04T14:36:25.310Z,8.00
2023-02-04T14:38:51.969Z,7.80
2023-02-04T14:41:20.777Z,8.80
2023-02-04T14:43:47.460Z,7.60
2023-02-04T14:46:14.632Z,8.90
2023-02-04T14:48:41.506Z,8.70
2023-02-04T14:51:08.093Z,8.60
2023-02-04T14:53:34.677Z,7.80
2023-02-04T14:56:01.636Z,8.30
2023-02-04T14:58:28.716Z,8.70
2023-02-04T15:00:55.841Z,8.50
2023-02-04T15:03:22.847Z,8.50
2023-02-04T15:05:49.701Z,9.20
2023-02-04T15:08:17.135Z,8.50
2023-02-04T15:10:43.739Z,9.80
2023-02-04T15:13:10.825Z,9.50
2023-02-04T15:15:37.581Z,9.00
2023-02-04T15:18:04.508Z,9.60
2023-02-04T15:20:31.351Z,9.20
2023-02-04T15:23:00.597Z,8.70
2023-02-04T15:25:27.796Z,9.00
2023-02-04T15:27:54.695Z,9.00
2023-02-04T15:30:21.476Z,8.20
2023-02-04T15:32:48.567Z,8.70
2023-02-04T15:35:15.409Z,8.50
2023-02-04T15:37:42.429Z,7.90
2023-02-04T15:40:10.427Z,8.20
2023-02-04T15:42:37.568Z,8.90
2023-02-04T15:45:04.908Z,8.10
2023-02-04T15:47:32.146Z,7.90
2023-02-04T15:49:58.926Z,8.30
2023-02-04T15:52:26.633Z,8.00
2023-02-04T15:54:54.719Z,8.20
2023-02-04T15:57:21.277Z,8.20
2023-02-04T15:59:47.998Z,7.90
2023-02-04T16:02:15.299Z,8.20
2023-02-04T16:04:44.651Z,9.10
2023-02-04T16:07:11.559Z,8.00
2023-02-04T16:09:38.480Z,9.20
2023-02-04T16:12:05.509Z,7.50
2023-02-04T16:14:32.739Z,8.00
2023-02-04T16:17:01.304Z,8.50
2023-02-04T16:19:28.641Z,9.20
2023-02-04T16:21:55.783Z,7.80
2023-02-04T16:24:23.198Z,8.60
2023-02-04T16:26:50.229Z,7.50
2023-02-04T16:29:17.609Z,6.60
2023-02-04T16:31:44.837Z,7.00
2023-02-04T16:34:11.958Z,6.00
2023-02-04T16:36:38.726Z,7.20
2023-02-04T16:39:05.894Z,7.00
2023-02-04T16:41:32.689Z,6.20
2023-02-04T16:43:59.949Z,6.50
2023-02-04T16:46:28.097Z,6.40
2023-02-04T16:48:55.302Z,6.10
2023-02-04T16:51:24.182Z,6.60
2023-02-04T16:53:51.013Z,6.50
2023-02-04T16:56:17.755Z,6.40
2023-02-04T16:58:44.602Z,6.60
2023-02-04T17:01:11.750Z,6.50
2023-02-04T17:03:39.325Z,6.50
2023-02-04T17:06:06.752Z,6.00
2023-02-04T17:08:34.542Z,6.30
2023-02-04T17:11:20.022Z,5.60
2023-02-04T17:13:47.160Z,6.40
2023-02-04T17:16:15.986Z,5.90
2023-02-04T17:18:42.793Z,6.60
2023-02-04T17:21:10.009Z,6.90
2023-02-04T17:23:36.997Z,6.40
2023-02-04T17:26:04.651Z,7.30
2023-02-04T17:28:31.999Z,6.80
2023-02-04T17:30:58.762Z,6.20
2023-02-04T17:33:25.585Z,6.40
2023-02-04T17:35:52.503Z,6.60
2023-02-04T17:38:19.204Z,6.70
2023-02-04T17:40:46.275Z,6.00
2023-02-04T17:43:12.925Z,7.20
2023-02-04T17:45:40.110Z,6.70
2023-02-04T17:48:07.163Z,6.00
2023-02-04T17:53:03.714Z,6.80
2023-02-04T17:55:32.812Z,6.20
2023-02-04T18:00:28.433Z,6.90
2023-02-04T18:02:55.440Z,7.00
2023-02-04T18:05:27.079Z,6.30
2023-02-04T18:08:13.889Z,7.10
2023-02-04T18:10:45.649Z,5.50
2023-02-04T18:13:13.984Z,7.40
2023-02-04T18:15:43.389Z,7.90
2023-02-04T18:18:21.742Z,7.70
2023-02-04T18:21:00.865Z,8.20
2023-02-04T18:23:29.435Z,7.90
2023-02-04T18:26:00.950Z,6.70
2023-02-04T18:28:27.806Z,6.50
2023-02-04T18:31:03.079Z,7.10
2023-02-04T18:33:29.846Z,5.40
2023-02-04T18:35:58.016Z,6.70
2023-02-04T18:38:31.608Z,6.60
2023-02-04T18:41:12.673Z,5.90
2023-02-04T18:43:39.546Z,5.40
2023-02-04T18:46:26.170Z,5.50
2023-02-04T18:49:01.402Z,5.40
2023-02-04T18:51:31.546Z,5.80
2023-02-04T18:54:01.032Z,5.50
2023-02-04T18:58:57.349Z,5.80
2023-02-04T19:01:27.049Z,6.00
2023-02-04T19:03:55.596Z,5.50
2023-02-04T19:06:31.323Z,4.90
2023-02-04T19:09:29.857Z,5.70
2023-02-04T19:17:25.778Z,5.00
2023-02-04T19:20:00.141Z,6.20
2023-02-04T19:22:53.124Z,5.30
2023-02-04T19:25:33.532Z,4.80
2023-02-04T19:28:02.301Z,4.90
2023-02-04T19:30:29.702Z,5.10
2023-02-04T19:33:01.366Z,5.80
2023-02-04T19:35:34.853Z,5.00
2023-02-04T19:38:02.276Z,5.00
2023-02-04T19:40:34.339Z,4.80
2023-02-04T19:43:15.308Z,5.00
2023-02-04T19:45:42.224Z,5.10
2023-02-04T19:48:19.537Z,5.00
2023-02-04T19:50:46.396Z,4.60
2023-02-04T19:53:24.690Z,4.70
2023-02-04T19:55:52.049Z,4.90
2023-02-04T19:58:28.433Z,4.40
2023-02-04T20:01:02.927Z,5.00
2023-02-04T20:03:36.067Z,4.30
2023-02-04T20:06:09.322Z,4.70
2023-02-04T20:08:53.445Z,5.20
2023-02-04T20:11:29.238Z,4.40
2023-02-04T20:14:13.468Z,4.00
2023-02-04T20:16:57.544Z,5.80
2023-02-04T20:19:32.190Z,4.30
2023-02-04T20:22:17.336Z,4.50
2023-02-04T20:24:45.791Z,4.90
2023-02-04T20:27:21.241Z,4.80
2023-02-04T20:29:49.507Z,4.60
2023-02-04T20:32:25.624Z,4.90
2023-02-04T20:34:53.554Z,4.90
2023-02-04T20:37:25.907Z,4.90
2023-02-04T20:39:52.860Z,5.20
2023-02-04T20:42:32.459Z,4.40
2023-02-04T20:45:14.423Z,5.10
2023-02-04T20:47:44.204Z,4.70
2023-02-04T20:50:33.065Z,4.30
2023-02-04T20:53:05.775Z,4.20
2023-02-04T20:55:33.457Z,4.20
2023-02-04T20:58:20.939Z,4.90
2023-02-04T21:00:51.513Z,4.40
2023-02-04T21:03:23.442Z,4.40
2023-02-04T21:05:51.875Z,4.80
2023-02-04T21:08:23.751Z,4.50
2023-02-04T21:10:51.015Z,4.90
2023-02-04T21:13:17.756Z,4.30
2023-02-04T21:15:47.637Z,4.60
2023-02-04T21:18:14.720Z,4.70
2023-02-04T21:20:41.293Z,4.80
2023-02-04T21:23:08.675Z,4.50
2023-02-04T21:25:35.626Z,4.50
2023-02-04T21:28:04.512Z,4.50
2023-02-04T21:30:31.592Z,4.40
2023-02-04T21:32:59.356Z,4.50
2023-02-04T21:35:26.172Z,5.00
2023-02-04T21:37:54.137Z,4.10
2023-02-04T21:40:21.429Z,3.70
2023-02-04T21:42:48.718Z,4.30
2023-02-04T21:45:16.966Z,3.80
2023-02-04T21:47:44.819Z,4.10
2023-02-04T21:50:13.811Z,3.70
2023-02-04T21:52:41.787Z,4.30
2023-02-04T21:55:09.059Z,3.70
2023-02-04T21:57:36.896Z,3.80
2023-02-04T22:00:05.183Z,3.60
2023-02-04T22:02:32.098Z,3.90
2023-02-04T22:04:58.874Z,4.00
2023-02-04T22:07:25.498Z,3.80
2023-02-04T22:09:52.276Z,4.00
2023-02-04T22:12:19.165Z,3.80
2023-02-04T22:14:45.795Z,3.80
2023-02-04T22:17:12.570Z,3.70
2023-02-04T22:19:39.299Z,4.10
2023-02-04T22:22:05.953Z,3.80
2023-02-04T22:24:33.703Z,3.70
2023-02-04T22:27:00.374Z,3.60
2023-02-04T22:29:29.459Z,3.80
2023-02-04T22:34:24.454Z,3.90
2023-02-04T22:36:52.582Z,3.80
2023-02-04T22:39:19.267Z,3.80
2023-02-04T22:41:46.414Z,3.70
2023-02-04T22:44:13.503Z,3.60
2023-02-04T22:46:40.281Z,3.60
2023-02-04T22:49:07.082Z,3.70
2023-02-04T22:51:34.694Z,4.10
2023-02-04T22:54:01.459Z,4.10
2023-02-04T22:56:28.054Z,4.10
2023-02-04T22:58:54.583Z,3.70
2023-02-04T23:01:21.186Z,3.90
2023-02-04T23:03:48.316Z,4.00
2023-02-04T23:06:15.284Z,4.00
2023-02-04T23:08:42.237Z,3.60
2023-02-04T23:11:11.247Z,4.00
2023-02-04T23:13:39.026Z,4.20
2023-02-04T23:16:06.349Z,4.00
2023-02-04T23:18:33.460Z,4.00
2023-02-04T23:21:00.331Z,3.40
2023-02-04T23:23:28.823Z,4.00
2023-02-04T23:25:55.802Z,3.90
2023-02-04T23:28:22.468Z,4.10
2023-02-04T23:30:52.154Z,3.80
2023-02-04T23:33:19.010Z,3.40
2023-02-04T23:35:45.612Z,3.50
2023-02-04T23:38:12.390Z,3.90
2023-02-04T23:40:39.267Z,3.50
2023-02-04T23:43:06.238Z,3.80
2023-02-04T23:45:33.295Z,4.00
2023-02-04T23:48:00.136Z,3.80
2023-02-04T23:50:26.849Z,3.60
2023-02-04T23:52:54.108Z,4.30
2023-02-04T23:55:20.701Z,3.50
2023-02-04T23:57:49.046Z,4.20
